Time;durP1;ratioP1;P1;durP2;ratioP2;P2;SDS_P1;SDS_P2;PMS_P1;PMS_P2;Temp;Humidity;BMP_temperature;BMP_pressure;BME280_temperature;BME280_humidity;BME280_pressure;Samples;Min_cycle;Max_cycle;Signal;HPM_P1;HPM_P2
2022/01/27 00:01:05;;;;;;;22.23;13.07;;;;;;;-0.98;66.76;100744.47;5065236;28;20237;-63
2022/01/27 00:03:38;;;;;;;19.53;11.10;;;;;;;-1.14;67.32;100747.78;5065522;28;20231;-63
2022/01/27 00:06:09;;;;;;;29.80;14.77;;;;;;;-0.78;66.74;100756.59;5065875;28;21041;-63
2022/01/27 00:08:45;;;;;;;23.73;12.37;;;;;;;-0.61;66.00;100738.31;5065853;28;20597;-63
2022/01/27 00:11:14;;;;;;;20.13;11.93;;;;;;;-1.11;66.54;100716.22;5068337;28;20226;-63
2022/01/27 00:13:47;;;;;;;28.40;15.00;;;;;;;-0.90;66.13;100724.00;5069144;28;20232;-63
2022/01/27 00:16:19;;;;;;;27.50;13.80;;;;;;;-0.60;65.46;100742.63;5069922;28;20224;-63
2022/01/27 00:18:48;;;;;;;27.33;13.73;;;;;;;-0.94;66.04;100722.47;5068987;28;20242;-63
2022/01/27 00:21:19;;;;;;;21.60;12.50;;;;;;;-1.35;66.91;100701.66;5069777;28;20216;-63
2022/01/27 00:23:46;;;;;;;21.70;11.93;;;;;;;-1.30;67.18;100707.50;5064384;28;20242;-63
2022/01/27 00:26:15;;;;;;;23.30;14.13;;;;;;;-1.22;67.38;100706.25;5068303;28;20230;-63
2022/01/27 00:28:44;;;;;;;25.17;14.57;;;;;;;-1.19;66.61;100696.56;5069069;28;20230;-63
2022/01/27 00:31:10;;;;;;;21.50;12.03;;;;;;;-0.96;66.47;100717.28;5068887;28;21116;-63
2022/01/27 00:33:42;;;;;;;23.43;12.17;;;;;;;-1.31;67.49;100705.84;5066492;28;20619;-63
2022/01/27 00:36:10;;;;;;;25.73;13.40;;;;;;;-1.11;67.09;100713.59;5068605;28;20680;-63
2022/01/27 00:38:37;;;;;;;25.13;13.67;;;;;;;-1.39;68.10;100705.34;5068880;28;20257;-63
2022/01/27 00:41:04;;;;;;;26.10;13.27;;;;;;;-1.06;67.00;100706.38;5068766;28;20234;-63
2022/01/27 00:43:31;;;;;;;23.00;13.37;;;;;;;-1.30;67.48;100692.69;5068438;28;20727;-63
2022/01/27 00:45:58;;;;;;;27.40;14.40;;;;;;;-1.27;66.97;100696.91;5069204;28;20233;-63
2022/01/27 00:48:26;;;;;;;28.40;15.60;;;;;;;-1.09;67.36;100713.53;5068595;28;20227;-63
2022/01/27 00:51:00;;;;;;;24.90;13.27;;;;;;;-1.21;66.93;100701.88;5068456;28;20241;-63
2022/01/27 00:56:36;;;;;;;27.23;14.17;;;;;;;-1.31;66.36;100695.38;5030786;28;20852;-63
2022/01/27 00:59:23;;;;;;;25.50;13.77;;;;;;;-2.11;69.92;100707.69;5067394;28;20609;-63
2022/01/27 01:02:17;;;;;;;24.63;14.47;;;;;;;-1.98;68.29;100700.13;5068248;28;20809;-63
2022/01/27 01:04:44;;;;;;;30.77;15.03;;;;;;;-1.58;67.85;100723.66;5066236;28;20223;-63
2022/01/27 01:07:12;;;;;;;29.63;15.37;;;;;;;-0.87;66.65;100729.09;5068563;28;20238;-63
2022/01/27 01:15:00;;;;;;;21.70;12.73;;;;;;;-1.83;68.27;100698.59;5067771;28;20694;-63
2022/01/27 01:17:37;;;;;;;28.37;13.97;;;;;;;-1.53;67.56;100711.22;5061354;28;20741;-63
2022/01/27 01:30:57;;;;;;;24.50;13.53;;;;;;;-1.98;68.88;100707.97;5067900;28;20230;-63
2022/01/27 01:33:31;;;;;;;22.53;13.17;;;;;;;-1.35;67.53;100725.22;5067513;28;20742;-63
2022/01/27 01:36:04;;;;;;;23.60;13.20;;;;;;;-1.32;66.79;100707.59;5068257;28;20226;-63
2022/01/27 01:38:31;;;;;;;24.00;13.87;;;;;;;-1.42;67.58;100719.41;5067262;28;20233;-62
2022/01/27 01:40:58;;;;;;;24.17;12.83;;;;;;;-2.07;69.08;100693.53;5067802;28;20231;-63
2022/01/27 01:43:25;;;;;;;23.13;12.60;;;;;;;-1.82;68.62;100706.38;5067572;28;20689;-63
2022/01/27 01:45:52;;;;;;;27.60;13.70;;;;;;;-1.36;67.30;100707.81;5067324;28;20235;-63
2022/01/27 01:48:19;;;;;;;24.37;12.53;;;;;;;-1.62;66.80;100681.09;5068101;28;20230;-63
2022/01/27 01:50:47;;;;;;;25.50;13.33;;;;;;;-1.26;66.79;100702.06;5067189;28;20231;-63
2022/01/27 01:53:14;;;;;;;28.07;14.67;;;;;;;-1.65;68.07;100707.41;5066791;28;20233;-63
2022/01/27 01:55:41;;;;;;;19.97;11.43;;;;;;;-2.26;69.51;100700.47;5067222;28;20723;-63
2022/01/27 01:58:09;;;;;;;26.33;13.73;;;;;;;-1.93;68.52;100702.53;5067571;28;20227;-63
2022/01/27 02:00:36;;;;;;;26.53;14.13;;;;;;;-2.19;68.75;100681.00;5067422;28;20224;-63
2022/01/27 02:03:03;;;;;;;21.10;12.73;;;;;;;-1.91;67.82;100671.94;5065247;28;20220;-63
2022/01/27 02:05:36;;;;;;;27.23;14.97;;;;;;;-1.88;67.81;100679.66;5067385;28;22408;-63
2022/01/27 02:09:09;;;;;;;25.00;14.07;;;;;;;-1.86;68.12;100680.41;5067007;28;20239;-63
2022/01/27 02:19:30;;;;;;;30.57;15.03;;;;;;;-2.13;68.84;100696.41;5065905;28;20748;-63
2022/01/27 02:22:03;;;;;;;26.47;15.33;;;;;;;-2.00;68.30;100700.19;5067339;28;20235;-63
2022/01/27 02:24:33;;;;;;;27.37;15.33;;;;;;;-1.62;67.63;100702.03;5066253;28;20224;-63
2022/01/27 02:27:01;;;;;;;27.17;15.17;;;;;;;-1.97;68.09;100696.59;5066329;28;20241;-63
2022/01/27 02:29:28;;;;;;;27.00;15.33;;;;;;;-2.42;68.79;100674.16;5066967;28;20230;-63
2022/01/27 02:31:57;;;;;;;32.43;15.57;;;;;;;-2.05;69.17;100717.84;5066598;28;20227;-63
2022/01/27 02:34:25;;;;;;;28.03;14.47;;;;;;;-2.45;68.78;100674.28;5066470;28;20212;-62
2022/01/27 02:36:52;;;;;;;32.07;16.63;;;;;;;-1.78;67.68;100676.53;5066049;28;20686;-63
2022/01/27 02:39:19;;;;;;;36.27;18.67;;;;;;;-2.04;68.64;100689.97;5066586;28;20223;-63
2022/01/27 02:41:49;;;;;;;30.90;16.97;;;;;;;-2.38;69.78;100687.03;5067055;28;20243;-63
2022/01/27 02:44:54;;;;;;;31.60;15.33;;;;;;;-2.32;68.63;100675.47;5067012;28;20223;-63
2022/01/27 02:47:23;;;;;;;37.73;17.60;;;;;;;-2.17;68.63;100706.16;5063675;28;22641;-63
2022/01/27 02:49:50;;;;;;;32.90;16.93;;;;;;;-2.73;70.08;100683.28;5066801;28;20730;-63
2022/01/27 02:52:18;;;;;;;23.77;14.13;;;;;;;-2.72;70.19;100692.81;5058702;28;20237;-63
2022/01/27 02:54:45;;;;;;;31.40;16.63;;;;;;;-2.79;70.81;100704.44;5063141;28;20228;-63
2022/01/27 02:57:23;;;;;;;29.57;15.13;;;;;;;-2.73;69.98;100707.63;5066720;28;20587;-63
2022/01/27 02:59:51;;;;;;;35.27;17.87;;;;;;;-1.47;66.47;100719.63;5066313;28;20718;-63
2022/01/27 03:02:19;;;;;;;30.20;17.20;;;;;;;-1.98;68.35;100732.34;5063605;28;20655;-63
2022/01/27 03:04:46;;;;;;;33.37;17.87;;;;;;;-2.03;68.49;100729.09;5065949;28;20219;-62
2022/01/27 03:07:14;;;;;;;30.83;16.80;;;;;;;-2.26;68.65;100717.03;5066065;28;20797;-63
2022/01/27 03:09:41;;;;;;;26.00;14.10;;;;;;;-2.54;68.96;100707.72;5066694;28;20233;-63
2022/01/27 03:12:11;;;;;;;22.00;12.97;;;;;;;-2.48;69.12;100717.09;5066333;28;20227;-63
2022/01/27 03:14:40;;;;;;;31.37;14.27;;;;;;;-2.69;69.70;100716.19;5064167;28;20226;-62
2022/01/27 03:17:08;;;;;;;23.80;13.03;;;;;;;-2.66;70.34;100718.69;5066501;28;20231;-62
2022/01/27 03:19:37;;;;;;;24.53;13.10;;;;;;;-2.67;70.42;100706.53;5066429;28;20237;-62
2022/01/27 03:22:05;;;;;;;23.33;12.93;;;;;;;-2.74;69.98;100708.53;5066195;28;20242;-62
2022/01/27 03:24:33;;;;;;;21.20;11.63;;;;;;;-2.39;69.66;100708.00;5065326;28;20230;-62
2022/01/27 03:27:00;;;;;;;24.20;13.87;;;;;;;-1.98;68.25;100698.34;5066317;28;20221;-62
2022/01/27 03:29:28;;;;;;;19.57;12.67;;;;;;;-2.46;68.62;100668.22;5064514;28;20227;-63
2022/01/27 03:31:55;;;;;;;16.47;9.77;;;;;;;-2.38;69.19;100684.41;5066520;28;20235;-62
2022/01/27 03:34:23;;;;;;;26.93;14.20;;;;;;;-1.91;67.86;100685.84;5065873;28;20219;-63
2022/01/27 03:36:50;;;;;;;26.17;13.57;;;;;;;-1.91;67.30;100662.31;5066508;28;20219;-63
2022/01/27 03:39:20;;;;;;;20.90;11.67;;;;;;;-2.02;67.36;100664.59;5065798;28;20223;-62
2022/01/27 03:41:51;;;;;;;24.40;13.00;;;;;;;-2.80;69.14;100637.44;5066236;28;20248;-63
2022/01/27 03:44:20;;;;;;;20.53;10.83;;;;;;;-2.79;68.90;100641.75;5066214;28;20227;-62
2022/01/27 03:46:49;;;;;;;22.27;12.67;;;;;;;-2.73;69.36;100655.41;5069901;28;20231;-63
2022/01/27 03:49:17;;;;;;;27.57;15.30;;;;;;;-2.10;67.94;100679.75;5070204;28;20230;-64
2022/01/27 03:51:47;;;;;;;31.47;15.87;;;;;;;-2.53;69.39;100679.84;5069959;28;20244;-63
2022/01/27 03:54:15;;;;;;;25.40;12.73;;;;;;;-2.62;68.91;100648.88;5069680;28;20223;-63
2022/01/27 03:56:43;;;;;;;27.33;15.17;;;;;;;-1.51;66.75;100668.34;5069699;28;20227;-62
2022/01/27 03:59:10;;;;;;;23.87;13.90;;;;;;;-2.03;67.70;100655.03;5070153;28;20223;-63
2022/01/27 04:01:38;;;;;;;32.47;16.47;;;;;;;-2.19;68.67;100673.19;5069286;28;20276;-62
2022/01/27 04:04:06;;;;;;;29.53;16.57;;;;;;;-2.31;68.31;100671.94;5069365;28;20722;-62
2022/01/27 04:06:39;;;;;;;31.63;14.90;;;;;;;-1.94;67.59;100672.94;5069396;28;20221;-63
2022/01/27 04:09:08;;;;;;;32.67;16.97;;;;;;;-2.32;67.83;100654.53;5069564;28;20773;-63
2022/01/27 04:11:37;;;;;;;30.60;16.83;;;;;;;-2.15;67.79;100662.50;5069818;28;20728;-62
2022/01/27 04:14:04;;;;;;;29.90;15.37;;;;;;;-2.12;67.71;100660.69;5068932;28;20238;-62
2022/01/27 04:16:32;;;;;;;30.33;16.17;;;;;;;-2.56;68.53;100641.63;5069589;28;20236;-63
2022/01/27 04:18:58;;;;;;;34.23;17.03;;;;;;;-2.21;67.97;100644.47;5068878;28;20876;-62
2022/01/27 04:21:25;;;;;;;28.07;15.43;;;;;;;-2.47;69.12;100657.84;5069268;28;20215;-62
2022/01/27 04:23:52;;;;;;;27.53;15.47;;;;;;;-2.66;69.43;100640.31;5069304;28;20241;-62
2022/01/27 04:26:25;;;;;;;27.13;14.70;;;;;;;-2.64;68.92;100640.25;5069250;28;20229;-63
2022/01/27 04:28:53;;;;;;;27.00;14.17;;;;;;;-2.32;67.96;100653.72;5068475;28;20244;-62
2022/01/27 04:31:22;;;;;;;24.93;13.97;;;;;;;-2.29;68.18;100658.81;5067308;28;20216;-63
2022/01/27 04:33:49;;;;;;;30.13;14.77;;;;;;;-2.88;69.32;100648.22;5065197;28;20226;-62
2022/01/27 04:36:26;;;;;;;32.67;14.90;;;;;;;-2.38;68.35;100673.97;5068714;28;20219;-71
2022/01/27 04:39:03;;;;;;;29.70;15.03;;;;;;;-2.56;69.38;100679.97;5067298;28;20237;-64
2022/01/27 04:44:05;;;;;;;26.73;13.80;;;;;;;-2.32;68.72;100683.28;5065197;28;20227;-62
2022/01/27 04:46:40;;;;;;;29.83;15.07;;;;;;;-2.58;69.01;100655.69;5066639;28;20229;-62
2022/01/27 04:49:09;;;;;;;25.87;15.07;;;;;;;-2.59;69.37;100662.66;5067563;28;20238;-63
2022/01/27 04:51:36;;;;;;;27.97;15.00;;;;;;;-2.45;69.16;100672.50;5067035;28;20271;-63
2022/01/27 04:54:28;;;;;;;25.03;13.97;;;;;;;-2.91;70.24;100640.50;5067907;28;20229;-62
2022/01/27 04:56:59;;;;;;;27.10;13.40;;;;;;;-2.28;68.69;100650.91;5063099;28;20606;-62
2022/01/27 05:02:58;;;;;;;21.87;11.87;;;;;;;-3.86;74.06;100653.75;5063465;27;20362;-63
2022/01/27 05:05:25;;;;;;;26.10;15.00;;;;;;;-2.88;71.30;100644.75;5065742;28;20232;-63
2022/01/27 05:08:01;;;;;;;30.60;14.70;;;;;;;-2.79;70.64;100644.34;5071363;28;20222;-64
2022/01/27 05:10:32;;;;;;;24.40;12.57;;;;;;;-2.56;69.12;100596.38;5058530;28;20233;-63
2022/01/27 05:13:08;;;;;;;29.33;15.30;;;;;;;-2.39;69.29;100600.88;5062052;28;20836;-64
2022/01/27 05:15:42;;;;;;;33.53;17.23;;;;;;;-2.51;69.13;100602.25;5063449;28;20235;-63
2022/01/27 05:18:11;;;;;;;28.17;15.50;;;;;;;-2.65;69.49;100600.25;5063199;28;20238;-62
2022/01/27 05:20:39;;;;;;;29.37;15.70;;;;;;;-2.13;68.33;100611.91;5063384;28;20312;-64
2022/01/27 05:23:05;;;;;;;32.10;16.13;;;;;;;-2.98;70.40;100607.72;5062823;28;20231;-63
2022/01/27 05:25:32;;;;;;;29.80;15.03;;;;;;;-3.28;71.46;100595.84;5063102;28;20223;-63
2022/01/27 05:28:00;;;;;;;31.07;16.33;;;;;;;-2.63;70.03;100614.06;5063211;28;20994;-64
2022/01/27 05:30:27;;;;;;;33.13;15.67;;;;;;;-2.87;70.10;100612.50;5063192;28;20245;-63
2022/01/27 05:32:54;;;;;;;28.57;13.43;;;;;;;-3.04;71.25;100632.31;5060667;28;20223;-63
2022/01/27 05:35:20;;;;;;;32.20;17.13;;;;;;;-2.34;70.25;100674.69;5047490;28;20223;-63
2022/01/27 05:37:47;;;;;;;33.80;17.43;;;;;;;-2.76;70.30;100645.06;5042020;28;20574;-63
2022/01/27 05:40:14;;;;;;;25.70;13.87;;;;;;;-3.18;70.80;100614.59;5060263;28;20280;-63
2022/01/27 05:42:41;;;;;;;29.93;14.00;;;;;;;-3.22;71.86;100654.78;5065382;28;20223;-63
2022/01/27 05:45:09;;;;;;;31.40;17.17;;;;;;;-2.86;70.30;100659.44;5083040;28;20896;-63
2022/01/27 05:47:36;;;;;;;29.73;16.53;;;;;;;-2.97;70.39;100652.06;5082996;28;20222;-63
2022/01/27 05:50:04;;;;;;;27.90;14.90;;;;;;;-2.92;69.86;100624.00;5082746;28;20237;-63
2022/01/27 05:52:32;;;;;;;30.83;16.23;;;;;;;-2.95;70.64;100649.38;5082979;28;20229;-63
2022/01/27 05:54:58;;;;;;;25.77;14.33;;;;;;;-2.18;68.72;100669.63;5081452;28;20901;-63
2022/01/27 05:57:26;;;;;;;23.63;12.23;;;;;;;-2.77;69.65;100640.78;5076852;28;20218;-63
2022/01/27 05:59:55;;;;;;;25.33;12.27;;;;;;;-2.53;69.07;100645.88;5066234;28;20961;-63
2022/01/27 06:02:22;;;;;;;34.67;15.73;;;;;;;-2.24;68.35;100662.91;5063159;28;20225;-63
2022/01/27 06:05:14;;;;;;;31.37;16.27;;;;;;;-2.52;68.56;100650.19;5094256;27;21950;-63
2022/01/27 06:08:05;;;;;;;27.47;13.03;;;;;;;-2.32;69.04;100677.22;5097950;27;20224;-64
2022/01/27 06:10:57;;;;;;;29.80;16.10;;;;;;;-2.19;68.38;100670.56;5103321;27;20224;-63
2022/01/27 06:13:48;;;;;;;25.10;14.03;;;;;;;-2.16;67.90;100671.28;5093725;28;20221;-64
2022/01/27 06:16:39;;;;;;;22.80;12.77;;;;;;;-2.25;68.68;100669.03;5090747;28;20212;-62
2022/01/27 06:19:30;;;;;;;29.53;16.40;;;;;;;-2.12;68.36;100686.81;5091521;28;20225;-62
2022/01/27 06:22:21;;;;;;;26.90;15.23;;;;;;;-2.07;67.96;100674.41;5090301;28;20229;-63
2022/01/27 06:25:14;;;;;;;24.27;13.37;;;;;;;-2.28;68.33;100658.75;5089432;28;20737;-64
2022/01/27 06:28:05;;;;;;;25.73;13.37;;;;;;;-2.43;68.16;100646.31;5089816;28;20214;-65
2022/01/27 06:30:56;;;;;;;27.17;15.87;;;;;;;-1.98;67.92;100666.13;5079284;28;20226;-64
2022/01/27 06:33:47;;;;;;;27.27;14.87;;;;;;;-1.92;67.73;100658.03;5088849;28;20213;-64
2022/01/27 06:36:38;;;;;;;29.00;15.90;;;;;;;-2.92;70.06;100615.28;5084610;28;20212;-64
2022/01/27 06:39:29;;;;;;;21.47;11.60;;;;;;;-2.23;68.51;100654.16;5075499;28;20937;-64
2022/01/27 06:42:20;;;;;;;17.47;11.23;;;;;;;-2.34;67.88;100632.88;5089177;28;20912;-64
2022/01/27 06:45:12;;;;;;;21.30;11.30;;;;;;;-2.01;67.60;100635.75;5086072;27;20850;-63
2022/01/27 06:48:03;;;;;;;28.00;14.33;;;;;;;-2.33;68.17;100631.94;5069771;28;20217;-63
2022/01/27 06:50:55;;;;;;;23.43;12.60;;;;;;;-4.06;72.68;100557.22;5086261;28;20241;-63
2022/01/27 06:53:46;;;;;;;21.37;11.63;;;;;;;-3.34;68.63;100554.38;5090495;28;20218;-63
2022/01/27 06:56:38;;;;;;;23.07;11.33;;;;;;;-2.40;68.93;100651.41;5089615;28;20224;-63
2022/01/27 06:59:30;;;;;;;18.63;10.47;;;;;;;-2.68;69.69;100660.44;5089303;28;20217;-62
2022/01/27 07:02:21;;;;;;;23.30;13.87;;;;;;;-2.81;70.82;100677.53;5088211;28;20220;-63
2022/01/27 07:05:15;;;;;;;21.20;12.00;;;;;;;-3.16;69.05;100606.72;5089030;27;21928;-63
2022/01/27 07:08:06;;;;;;;18.23;10.43;;;;;;;-2.29;68.83;100690.19;5089538;28;20217;-63
2022/01/27 07:10:57;;;;;;;20.50;11.43;;;;;;;-1.94;67.79;100698.22;5089427;28;20233;-63
2022/01/27 07:13:48;;;;;;;20.50;10.90;;;;;;;-2.71;69.52;100671.84;5090162;28;20221;-63
2022/01/27 07:16:39;;;;;;;16.87;8.97;;;;;;;-2.48;68.53;100669.19;5088867;28;20221;-63
2022/01/27 07:19:30;;;;;;;13.60;7.97;;;;;;;-2.57;68.62;100667.81;5090722;28;20233;-63
2022/01/27 07:22:21;;;;;;;16.57;10.23;;;;;;;-3.18;71.70;100689.44;5089649;28;20221;-63
2022/01/27 07:25:12;;;;;;;18.77;10.43;;;;;;;-2.87;70.32;100673.38;5088071;28;20757;-63
2022/01/27 07:28:03;;;;;;;17.23;9.47;;;;;;;-2.01;68.40;100687.19;5088531;27;20218;-63
2022/01/27 07:30:54;;;;;;;8.40;6.37;;;;;;;-2.97;69.70;100645.97;5070244;27;20222;-63
2022/01/27 07:33:48;;;;;;;15.60;9.07;;;;;;;-4.26;72.79;100558.78;5076888;27;20233;-64
2022/01/27 07:36:15;;;;;;;20.10;9.70;;;;;;;-3.51;73.39;100671.56;5118773;27;20228;-64
2022/01/27 07:38:43;;;;;;;14.07;8.67;;;;;;;-3.11;71.65;100676.06;5111947;27;20222;-64
2022/01/27 07:41:13;;;;;;;14.70;8.40;;;;;;;-2.82;68.45;100616.63;5107825;28;20236;-64
2022/01/27 07:43:40;;;;;;;10.87;6.97;;;;;;;-2.85;71.34;100676.81;5108086;28;20225;-63
2022/01/27 07:46:08;;;;;;;14.97;9.00;;;;;;;-2.63;69.98;100658.47;5107811;28;20222;-64
2022/01/27 07:48:35;;;;;;;12.93;8.53;;;;;;;-2.84;68.47;100607.16;5107633;28;20606;-64
2022/01/27 07:51:03;;;;;;;14.73;8.80;;;;;;;-2.75;68.81;100617.19;5107633;28;20247;-63
2022/01/27 07:53:30;;;;;;;13.10;8.43;;;;;;;-2.87;69.31;100617.72;5107957;28;20230;-63
2022/01/27 07:56:17;;;;;;;18.87;9.40;;;;;;;-2.21;68.59;100654.06;5107732;27;20230;-64
2022/01/27 07:58:43;;;;;;;13.17;7.80;;;;;;;-2.45;69.98;100672.50;5107327;28;20221;-63
2022/01/27 08:01:10;;;;;;;14.30;8.63;;;;;;;-4.49;73.53;100519.72;5106198;27;20222;-64
2022/01/27 08:03:38;;;;;;;16.53;8.77;;;;;;;-2.58;70.04;100656.53;5107222;28;20240;-63
2022/01/27 08:06:07;;;;;;;14.83;6.53;;;;;;;-2.29;68.91;100659.66;5107369;28;20224;-63
2022/01/27 08:08:34;;;;;;;12.77;7.40;;;;;;;-2.09;68.41;100658.78;5106646;28;20225;-63
2022/01/27 08:11:01;;;;;;;14.17;9.67;;;;;;;-3.29;69.73;100594.19;5107969;28;20239;-64
2022/01/27 08:13:28;;;;;;;13.67;8.10;;;;;;;-2.09;68.42;100655.28;5107293;28;20214;-64
2022/01/27 08:15:55;;;;;;;12.83;7.43;;;;;;;-2.92;70.68;100654.44;5107416;28;20228;-64
2022/01/27 08:18:42;;;;;;;13.83;7.77;;;;;;;-3.11;69.82;100612.59;5106479;28;20235;-64
2022/01/27 08:21:09;;;;;;;12.67;8.27;;;;;;;-3.07;71.75;100645.50;5107304;28;20224;-64
2022/01/27 08:23:38;;;;;;;15.53;8.67;;;;;;;-3.10;71.25;100632.56;5107163;28;20222;-64
2022/01/27 08:26:08;;;;;;;9.83;6.27;;;;;;;-4.36;73.25;100530.56;5106931;28;20222;-64
2022/01/27 08:28:50;;;;;;;11.03;7.30;;;;;;;-2.46;68.56;100599.44;5107106;28;20225;-64
2022/01/27 08:31:18;;;;;;;13.33;8.00;;;;;;;-2.44;69.95;100645.47;5105217;28;20236;-64
2022/01/27 08:33:45;;;;;;;11.20;6.77;;;;;;;-2.61;69.61;100621.84;5098137;28;20255;-63
2022/01/27 08:36:11;;;;;;;10.30;6.73;;;;;;;-4.38;73.84;100532.38;5100381;28;20240;-65
2022/01/27 08:38:43;;;;;;;13.57;7.20;;;;;;;-3.23;71.07;100603.50;5098147;28;20218;-64
2022/01/27 08:41:10;;;;;;;11.70;7.27;;;;;;;-4.11;73.31;100565.19;5101158;27;20212;-64
2022/01/27 08:43:38;;;;;;;14.73;8.77;;;;;;;-4.25;71.88;100508.41;5099706;28;20232;-63
2022/01/27 08:46:05;;;;;;;10.17;6.07;;;;;;;-3.15;72.01;100631.91;5106105;28;20225;-64
2022/01/27 08:48:33;;;;;;;11.40;7.47;;;;;;;-4.68;74.77;100485.72;5105792;28;20615;-63
2022/01/27 08:51:01;;;;;;;13.63;7.90;;;;;;;-4.50;76.14;100550.13;5105923;28;20675;-64
2022/01/27 08:53:48;;;;;;;13.83;8.73;;;;;;;-3.50;73.06;100602.84;5106933;28;20218;-64
2022/01/27 08:56:17;;;;;;;12.63;7.70;;;;;;;-2.36;69.19;100585.88;5106109;28;20221;-64
2022/01/27 08:59:04;;;;;;;12.27;7.53;;;;;;;-3.39;73.29;100621.56;5105802;28;20519;-64
2022/01/27 09:01:31;;;;;;;15.40;8.60;;;;;;;-3.25;69.55;100542.72;5104798;28;20221;-63
2022/01/27 09:03:58;;;;;;;14.93;8.70;;;;;;;-4.54;73.64;100490.41;5106852;28;20235;-63
2022/01/27 09:06:28;;;;;;;14.13;8.87;;;;;;;-3.40;72.17;100598.13;5104588;28;20701;-63
2022/01/27 09:08:56;;;;;;;9.53;5.93;;;;;;;-2.85;70.91;100597.59;5105287;28;20232;-64
2022/01/27 09:11:23;;;;;;;14.13;8.33;;;;;;;-3.23;70.18;100550.47;5107305;28;20217;-64
2022/01/27 09:13:55;;;;;;;17.80;9.50;;;;;;;-4.66;75.03;100468.25;5106344;28;20217;-63
2022/01/27 09:16:26;;;;;;;26.70;15.13;;;;;;;-4.66;74.87;100478.69;5107129;28;20762;-64
2022/01/27 09:19:05;;;;;;;22.07;11.90;;;;;;;-4.60;76.03;100514.91;5104489;28;20750;-64
2022/01/27 09:21:43;;;;;;;26.93;14.63;;;;;;;-2.74;72.27;100601.47;5106576;28;20774;-64
2022/01/27 09:24:15;;;;;;;30.13;17.37;;;;;;;-2.94;72.41;100589.28;5105952;28;20235;-64
2022/01/27 09:26:52;;;;;;;34.83;16.07;;;;;;;-3.89;74.77;100561.78;5105753;28;20218;-64
2022/01/27 09:29:21;;;;;;;39.17;21.33;;;;;;;-3.45;75.01;100608.75;5106985;28;20217;-64
2022/01/27 09:31:48;;;;;;;36.03;17.57;;;;;;;-3.73;74.75;100591.56;5104414;28;20226;-63
2022/01/27 09:34:16;;;;;;;37.60;17.27;;;;;;;-4.52;78.00;100559.75;5106322;28;20609;-63
2022/01/27 09:36:44;;;;;;;29.60;16.90;;;;;;;-3.24;73.98;100595.75;5097557;28;20243;-63
2022/01/27 09:39:11;;;;;;;28.50;13.93;;;;;;;-3.92;75.59;100588.78;5106732;28;20222;-63
2022/01/27 09:41:41;;;;;;;25.53;14.77;;;;;;;-3.18;73.56;100593.72;5093444;28;20230;-63
2022/01/27 09:44:12;;;;;;;30.17;16.37;;;;;;;-3.83;72.39;100523.28;5099492;28;20793;-63
2022/01/27 09:46:43;;;;;;;31.43;15.20;;;;;;;-2.99;72.35;100580.75;5102780;28;20221;-63
2022/01/27 09:49:16;;;;;;;27.47;16.00;;;;;;;-3.46;73.81;100581.81;5109001;28;20229;-64
2022/01/27 09:51:45;;;;;;;27.20;16.23;;;;;;;-3.47;73.95;100597.53;5110262;27;20229;-63
2022/01/27 09:54:15;;;;;;;35.77;18.13;;;;;;;-2.53;70.01;100551.84;5109259;28;20217;-64
2022/01/27 09:56:43;;;;;;;31.57;16.30;;;;;;;-2.75;71.88;100568.44;5109371;28;20218;-64
2022/01/27 09:59:15;;;;;;;29.33;16.20;;;;;;;-2.58;71.69;100575.53;5110042;27;20704;-63
2022/01/27 10:01:54;;;;;;;28.23;15.03;;;;;;;-3.73;72.21;100508.13;5107872;27;20222;-64
2022/01/27 10:04:23;;;;;;;35.90;17.00;;;;;;;-3.50;75.17;100608.91;5109951;28;20642;-63
2022/01/27 10:06:57;;;;;;;33.10;14.97;;;;;;;-3.43;71.03;100528.66;5108149;28;21262;-63
2022/01/27 10:09:27;;;;;;;28.37;15.40;;;;;;;-3.03;73.02;100589.63;5102530;28;20243;-64
2022/01/27 10:11:54;;;;;;;34.37;15.87;;;;;;;-2.87;70.31;100531.56;5109956;28;20232;-64
2022/01/27 10:14:26;;;;;;;31.53;16.13;;;;;;;-2.60;72.62;100594.78;5082854;28;20224;-64
2022/01/27 10:16:55;;;;;;;36.80;19.57;;;;;;;-3.84;73.81;100533.78;5108396;27;20570;-64
2022/01/27 10:19:23;;;;;;;35.27;17.10;;;;;;;-2.06;69.84;100563.66;5110096;28;20222;-64
2022/01/27 10:22:01;;;;;;;40.13;15.33;;;;;;;-4.08;75.09;100546.84;5109802;28;20929;-64
2022/01/27 10:24:31;;;;;;;32.40;16.27;;;;;;;-3.84;76.27;100604.16;5101402;28;20601;-64
2022/01/27 10:32:46;;;;;;;32.33;14.40;;;;;;;-3.33;74.07;100605.63;5107471;28;20210;-64
2022/01/27 10:35:15;;;;;;;23.13;11.30;;;;;;;-2.76;72.29;100592.00;5108743;28;20784;-64
2022/01/27 10:38:05;;;;;;;28.83;13.43;;;;;;;-2.49;71.91;100591.72;5109810;27;20228;-65
2022/01/27 10:40:37;;;;;;;27.37;14.80;;;;;;;-2.93;71.56;100559.63;5108016;28;20788;-64
2022/01/27 10:43:20;;;;;;;28.30;13.77;;;;;;;-2.15;70.07;100572.78;5108558;27;20978;-64
2022/01/27 10:46:15;;;;;;;34.73;16.70;;;;;;;-2.27;70.64;100568.09;5109192;28;20224;-64
2022/01/27 10:48:48;;;;;;;33.93;16.53;;;;;;;-2.69;72.35;100596.03;5108249;27;20596;-64
2022/01/27 10:51:22;;;;;;;32.77;16.43;;;;;;;-2.10;69.80;100576.03;5109468;28;20225;-63
2022/01/27 10:54:04;;;;;;;30.70;15.87;;;;;;;-2.26;69.93;100549.75;5099977;28;20233;-64
2022/01/27 10:56:40;;;;;;;37.20;19.07;;;;;;;-2.22;69.11;100530.38;5101970;28;20218;-64
2022/01/27 10:59:13;;;;;;;22.63;14.33;;;;;;;-4.52;75.59;100444.31;5107552;28;20248;-64
2022/01/27 11:03:57;;;;;;;21.60;11.50;;;;;;;-4.85;79.10;100507.97;5054925;28;20579;-63
2022/01/27 11:06:26;;;;;;;39.07;18.90;;;;;;;-3.15;74.66;100570.13;5043813;28;20236;-63
2022/01/27 11:08:56;;;;;;;31.03;15.80;;;;;;;-3.17;73.58;100538.03;5042965;28;20236;-63
2022/01/27 11:11:25;;;;;;;24.27;14.17;;;;;;;-3.44;74.99;100546.97;5021479;28;20220;-63
2022/01/27 11:13:54;;;;;;;27.53;13.87;;;;;;;-3.21;75.43;100551.25;5023622;28;20232;-63
2022/01/27 11:16:27;;;;;;;20.60;11.50;;;;;;;-3.40;76.19;100540.72;5016210;28;20608;-64
2022/01/27 11:19:02;;;;;;;29.10;15.53;;;;;;;-2.84;73.92;100513.16;5023047;28;20719;-64
2022/01/27 11:21:36;;;;;;;33.20;18.63;;;;;;;-2.57;71.76;100479.72;5016848;28;20258;-64
2022/01/27 11:24:07;;;;;;;32.07;16.43;;;;;;;-2.38;72.10;100511.09;5023485;28;20235;-63
2022/01/27 11:26:40;;;;;;;27.47;15.67;;;;;;;-3.43;74.72;100479.09;5022598;28;20627;-63
2022/01/27 11:29:09;;;;;;;29.17;15.47;;;;;;;-2.28;72.60;100507.16;5023451;28;20365;-63
2022/01/27 11:31:51;;;;;;;23.90;14.73;;;;;;;-3.76;75.44;100463.06;5024081;28;20243;-63
2022/01/27 11:34:18;;;;;;;26.43;16.87;;;;;;;-2.48;72.55;100483.69;5022758;28;20225;-63
2022/01/27 11:37:02;;;;;;;24.10;14.13;;;;;;;-2.38;72.28;100485.81;5022743;28;20744;-63
2022/01/27 11:39:49;;;;;;;25.10;13.73;;;;;;;-2.31;71.15;100462.00;5023268;28;20232;-63
2022/01/27 11:43:03;;;;;;;28.37;15.57;;;;;;;-1.75;70.29;100486.38;5022906;28;20665;-63
2022/01/27 11:45:34;;;;;;;19.87;11.90;;;;;;;-2.77;72.62;100498.91;5014199;28;20775;-63
2022/01/27 11:48:10;;;;;;;26.77;15.90;;;;;;;-3.18;74.58;100522.41;5023455;28;20232;-63
2022/01/27 11:50:47;;;;;;;27.50;14.00;;;;;;;-3.11;73.09;100493.38;5022172;28;20236;-63
2022/01/27 11:53:45;;;;;;;30.23;14.87;;;;;;;-2.04;70.71;100510.38;5021449;28;20217;-63
2022/01/27 11:56:24;;;;;;;27.93;15.83;;;;;;;-2.49;72.28;100521.19;5022150;28;20599;-63
2022/01/27 11:58:54;;;;;;;29.63;16.77;;;;;;;-1.84;69.86;100506.84;5033600;28;20231;-63
2022/01/27 12:01:56;;;;;;;30.50;17.23;;;;;;;-2.52;73.33;100538.69;5028939;28;20217;-62
2022/01/27 12:04:26;;;;;;;25.03;13.93;;;;;;;-1.88;69.85;100514.88;5024100;28;20216;-63
2022/01/27 12:06:53;;;;;;;22.47;14.00;;;;;;;-2.42;71.72;100517.38;5033354;28;20303;-63
2022/01/27 12:09:20;;;;;;;32.40;18.13;;;;;;;-1.86;69.53;100502.56;5042446;28;20224;-62
2022/01/27 12:11:49;;;;;;;25.67;15.93;;;;;;;-2.25;70.95;100486.09;5043037;28;20232;-63
2022/01/27 12:14:41;;;;;;;22.40;15.27;;;;;;;-1.73;69.52;100495.84;5032403;28;20658;-63
2022/01/27 12:17:08;;;;;;;43.70;23.57;;;;;;;-1.51;68.47;100481.72;5027740;28;20801;-63
2022/01/27 12:19:57;;;;;;;24.57;15.00;;;;;;;-1.73;68.68;100474.91;5028577;28;20696;-63
2022/01/27 12:22:48;;;;;;;27.80;15.67;;;;;;;-1.66;68.38;100465.84;5028329;28;20628;-62